Apalachicola, FL

4:28 AM EDT on August 31, 2014 (GMT -0400)
Apalachicola Municipal | Change Station
CLOSE
Current Station
Airport
Location: Apalachicola,
Elevation: 20 ft
Nearby Weather Stations

Elev 20 ft 29.73 °N, 85.03 °W | Updated 26 minutes ago

Partly Cloudy
Partly Cloudy
80 °F
Feels Like 86 °F
N
7
Wind Variable Wind from SE

Today
High -- | Low -- °F
--% Chance of Precip.
Yesterday
High -- | Low -- °F
Precip. -- in
7:16 AM 8:03 PM
Waxing Crescent, 29% visible
Pressure 30.09 in
Visibility 10.0 miles
Clouds Few 1400 ft
Few 2300 ft
Heat Index 86 °F
Dew Point 78 °F
Humidity 94%
Rainfall 0.00 in
Snow Depth Not available.
UV 0 out of 12
Pollen 6.80 out of 12
Air Quality Not available.
Flu Activity Not available.
SPECI KAAF 310802Z AUTO 13006KT 10SM FEW014 FEW023 27/26 A3009 RMK AO2 T02670256

More Conditions Fewer Conditions

Pressure 30.09 in
Visibility 10.0 miles
Clouds Few 1400 ft
Few 2300 ft
Heat Index 86 °F
Dew Point 78 °F
Humidity 94%
Rainfall 0.00 in
Snow Depth Not available.
UV 0 out of 12
Pollen 6.80 out of 12
Air Quality Not available.
Flu Activity Not available.
SPECI KAAF 310802Z AUTO 13006KT 10SM FEW014 FEW023 27/26 A3009 RMK AO2 T02670256

More Conditions Fewer Conditions

10-Day Weather Forecast

Almanac

Astronomy

Aug. 31, 2014 Rise Set
Actual Time 7:16 AM EDT 8:03 PM EDT
Civil Twilight 6:52 AM EDT 8:27 PM EDT
Nautical Twilight 6:23 AM EDT 8:56 PM EDT
Astronomical Twilight 5:54 AM EDT 9:25 PM EDT
Moon 12:35 PM EDT 11:45 PM EDT
Length of Visible Light 13h 35m
Length of Day
12h 46m
Tomorrow will be 1m 42s shorter.
Waxing Crescent, 29% of the Moon is Illuminated
Today
Waxing Crescent
Sep 2
First Quarter
Sep 8
Full
Sep 15
Last Quarter
Sep 24
New

Today's Extremes

State Highs State Lows

Community

WunderPhotos

Upload Photos

1,748,820 photos uploaded!

Nearby

Snow Depth

Station Depth Elevation
No new snow has been reported.

Earthquake Activity

City Distance Mag. Time & Date
No recent earthquake activity has been reported nearby.
Minimum magnitude displayed is 2.5.

Coastal Water Temperatures

Place Temperature
Panama City, FL 86.0 °F
Panama City Beach, FL 86.0 °F
Apalachicola, FL 88.0 °F

Nearby Weather Stations